Search for airport 
image banner adimage banner ad
image banner ad

SVFM - Caracas Base Aerea Generalisimo Francisco De Miranda

Located in Zona Metropolitana, Venezuela

ICAO - SVFM, IATA -

Data provided by Airmate  

General information

Coordinates: N10°29'6" W66°50'37"
Elevation is 2739 feet MSL.
 
Rated:
View ratings: [VIEW]


View others Airports in Miranda

Operational data

Open for public use
Current time UTC:
Current local time:
Weather
METAR: SVFM 151902Z AUTO 00000KT NCD 29/19 Q1012
View NOTAMs / SUP AIP / TFR affecting this airport [VIEW]
Communications frequencies: [VIEW]

Runways:

RWY identifierQFULength (ft)Width (ft)SurfaceLDA (ft)
11102°6475140ASP
2900

Airport contact information

Address: Zona Metropolitana Venezuela

Satellite view of SVFM